createdAt,value
2022-10-07T00:01:49.752Z,9.00
2022-10-07T00:07:11.030Z,8.80
2022-10-07T00:12:31.920Z,10.38
2022-10-07T00:17:53.437Z,7.47
2022-10-07T00:23:14.270Z,6.43
2022-10-07T00:28:36.461Z,5.85
2022-10-07T00:33:58.826Z,6.50
2022-10-07T00:39:19.413Z,12.23
2022-10-07T00:44:43.543Z,13.23
2022-10-07T00:50:11.039Z,11.00
2022-10-07T00:55:32.494Z,11.10
2022-10-07T01:00:53.891Z,8.95
2022-10-07T01:06:15.277Z,7.10
2022-10-07T01:11:50.798Z,8.20
2022-10-07T01:17:28.610Z,6.30
2022-10-07T01:23:16.501Z,5.55
2022-10-07T01:28:43.408Z,7.75
2022-10-07T01:34:08.408Z,8.77
2022-10-07T01:39:34.557Z,7.85
2022-10-07T01:44:58.857Z,11.85
2022-10-07T01:50:24.085Z,9.65
2022-10-07T01:55:54.022Z,5.35
2022-10-07T02:01:50.594Z,7.35
2022-10-07T02:07:11.425Z,6.50
2022-10-07T02:12:40.942Z,6.47
2022-10-07T02:18:08.412Z,7.32
2022-10-07T02:23:29.675Z,5.15
2022-10-07T02:28:53.642Z,8.48
2022-10-07T02:34:20.304Z,8.25
2022-10-07T02:39:43.683Z,6.85
2022-10-07T02:45:17.460Z,6.05
2022-10-07T02:50:45.385Z,7.82
2022-10-07T02:56:07.555Z,5.75
2022-10-07T03:01:33.018Z,6.38
2022-10-07T03:06:55.016Z,7.72
2022-10-07T03:12:18.285Z,7.25
2022-10-07T03:17:40.848Z,4.53
2022-10-07T03:23:02.227Z,5.47
2022-10-07T03:28:25.630Z,6.47
2022-10-07T03:33:47.708Z,4.95
2022-10-07T03:39:08.512Z,4.18
2022-10-07T03:44:30.714Z,17.70
2022-10-07T03:49:51.962Z,4.00
2022-10-07T03:55:12.581Z,4.40
2022-10-07T04:00:34.553Z,2.80
2022-10-07T04:05:59.774Z,3.97
2022-10-07T04:11:24.384Z,2.45
2022-10-07T04:16:48.335Z,2.20
2022-10-07T04:22:09.965Z,2.60
2022-10-07T04:27:50.761Z,3.28
2022-10-07T04:33:12.501Z,4.15
2022-10-07T04:38:33.850Z,4.25
2022-10-07T04:43:57.966Z,1.20
2022-10-07T04:49:21.969Z,3.53
2022-10-07T04:54:42.691Z,4.70
2022-10-07T05:00:05.577Z,2.58
2022-10-07T05:05:28.034Z,3.75
2022-10-07T05:10:55.269Z,6.43
2022-10-07T05:16:16.519Z,9.15
2022-10-07T05:21:37.811Z,4.63
2022-10-07T05:26:59.160Z,3.97
2022-10-07T05:32:21.423Z,3.13
2022-10-07T05:37:44.587Z,3.00
2022-10-07T05:43:10.822Z,4.32
2022-10-07T05:48:38.089Z,5.25
2022-10-07T05:54:01.303Z,2.47
2022-10-07T05:59:28.764Z,3.60
2022-10-07T06:04:49.469Z,2.17
2022-10-07T06:10:29.974Z,3.83
2022-10-07T06:15:51.125Z,4.40
2022-10-07T06:21:12.781Z,3.83
2022-10-07T06:26:34.633Z,2.10
2022-10-07T06:31:56.659Z,4.03
2022-10-07T06:37:17.783Z,4.53
2022-10-07T06:42:38.637Z,4.68
2022-10-07T06:48:23.157Z,6.72
2022-10-07T06:53:45.360Z,13.20
2022-10-07T06:59:07.802Z,10.40
2022-10-07T07:05:04.622Z,5.88
2022-10-07T07:10:25.590Z,3.63
2022-10-07T07:16:00.209Z,2.80
2022-10-07T07:21:26.196Z,2.95
2022-10-07T07:26:47.501Z,4.07
2022-10-07T07:32:09.013Z,3.35
2022-10-07T07:37:34.070Z,4.88
2022-10-07T07:42:55.752Z,2.67
2022-10-07T07:48:16.702Z,2.90
2022-10-07T07:53:38.135Z,5.40
2022-10-07T07:59:00.469Z,5.47
2022-10-07T08:04:22.898Z,3.83
2022-10-07T08:09:44.064Z,4.15
2022-10-07T08:15:05.606Z,4.10
2022-10-07T08:20:26.986Z,5.97
2022-10-07T08:25:53.755Z,4.25
2022-10-07T08:31:18.086Z,11.10
2022-10-07T08:36:39.756Z,9.93
2022-10-07T08:42:15.179Z,8.20
2022-10-07T08:47:44.253Z,9.10
2022-10-07T08:53:08.839Z,10.63
2022-10-07T08:58:38.446Z,14.15
2022-10-07T09:04:21.139Z,16.13
2022-10-07T09:10:09.660Z,10.27
2022-10-07T09:15:47.501Z,13.38
2022-10-07T09:21:20.046Z,9.35
2022-10-07T09:26:41.557Z,10.30
2022-10-07T09:32:02.621Z,9.23
2022-10-07T09:37:26.677Z,10.25
2022-10-07T09:42:49.744Z,11.98
2022-10-07T09:48:20.974Z,8.18
2022-10-07T09:54:04.069Z,7.30
2022-10-07T09:59:36.183Z,10.07
2022-10-07T10:04:57.581Z,8.93
2022-10-07T10:10:23.474Z,8.80
2022-10-07T10:15:44.982Z,8.98
2022-10-07T10:21:22.670Z,9.82
2022-10-07T10:27:21.860Z,11.10
2022-10-07T10:32:50.000Z,9.00
2022-10-07T10:38:28.388Z,10.27
2022-10-07T10:43:59.092Z,10.98
2022-10-07T10:49:28.909Z,10.07
2022-10-07T10:54:49.778Z,10.77
2022-10-07T11:00:16.034Z,9.82
2022-10-07T11:05:42.611Z,8.63
2022-10-07T11:11:09.068Z,12.95
2022-10-07T11:16:51.271Z,12.85
2022-10-07T11:22:32.922Z,18.20
2022-10-07T11:28:01.422Z,17.27
2022-10-07T11:33:34.032Z,19.83
2022-10-07T11:38:54.792Z,19.15
2022-10-07T11:44:28.992Z,19.00
2022-10-07T11:49:57.850Z,22.88
2022-10-07T11:55:34.340Z,23.40
2022-10-07T12:01:26.399Z,21.02
2022-10-07T12:07:25.120Z,20.88
2022-10-07T12:12:46.694Z,23.65
2022-10-07T12:18:07.632Z,22.77
2022-10-07T12:23:37.535Z,21.80
2022-10-07T12:29:04.681Z,20.75
2022-10-07T12:34:36.138Z,18.83
2022-10-07T12:39:59.042Z,16.85
2022-10-07T12:45:22.794Z,20.48
2022-10-07T12:50:45.816Z,19.83
2022-10-07T12:56:06.748Z,19.90
2022-10-07T13:01:52.512Z,20.65
2022-10-07T13:07:46.158Z,19.27
2022-10-07T13:13:39.908Z,20.75
2022-10-07T13:19:15.270Z,18.33
2022-10-07T13:24:40.532Z,24.13
2022-10-07T13:30:04.781Z,18.80
2022-10-07T13:35:32.492Z,20.38
2022-10-07T13:41:24.902Z,20.35
2022-10-07T13:47:01.278Z,16.27
2022-10-07T13:52:41.720Z,17.67
2022-10-07T13:58:05.443Z,16.95
2022-10-07T14:03:26.095Z,15.82
2022-10-07T14:08:51.404Z,18.08
2022-10-07T14:14:19.662Z,17.52
2022-10-07T14:19:41.146Z,17.23
2022-10-07T14:25:04.312Z,15.18
2022-10-07T14:30:28.273Z,13.48
2022-10-07T14:35:51.355Z,14.57
2022-10-07T14:41:13.129Z,20.80
2022-10-07T14:46:34.101Z,12.45
2022-10-07T14:51:54.653Z,14.48
2022-10-07T14:57:15.371Z,15.73
2022-10-07T15:02:35.791Z,13.18
2022-10-07T15:07:56.518Z,17.75
2022-10-07T15:13:17.178Z,15.05
2022-10-07T15:18:42.360Z,12.93
2022-10-07T15:24:04.171Z,14.57
2022-10-07T15:29:24.812Z,11.25
2022-10-07T15:34:46.041Z,15.55
2022-10-07T15:40:07.718Z,12.50
2022-10-07T15:45:28.582Z,10.65
2022-10-07T15:50:51.497Z,10.00
2022-10-07T15:56:12.386Z,14.80
2022-10-07T16:01:33.133Z,11.48
2022-10-07T16:06:53.636Z,12.60
2022-10-07T16:12:14.441Z,10.77
2022-10-07T16:17:35.663Z,14.75
2022-10-07T16:22:56.567Z,13.45
2022-10-07T16:28:35.726Z,14.07
2022-10-07T16:33:56.686Z,10.38
2022-10-07T16:39:20.046Z,10.77
2022-10-07T16:44:40.939Z,12.15
2022-10-07T16:50:01.545Z,12.38
2022-10-07T16:55:22.946Z,13.25
2022-10-07T17:00:44.033Z,12.23
2022-10-07T17:06:05.001Z,12.75
2022-10-07T17:11:28.749Z,14.60
2022-10-07T17:16:55.999Z,15.82
2022-10-07T17:22:17.276Z,20.10
2022-10-07T17:27:37.958Z,45.20
2022-10-07T17:32:58.758Z,49.65
2022-10-07T17:38:19.289Z,36.97
2022-10-07T17:43:41.495Z,44.03
2022-10-07T17:49:02.855Z,43.08
2022-10-07T17:54:24.095Z,26.90
2022-10-07T17:59:44.968Z,31.58
2022-10-07T18:05:07.225Z,24.42
2022-10-07T18:10:28.020Z,25.80
2022-10-07T18:15:57.822Z,26.88
2022-10-07T18:26:39.005Z,30.75
2022-10-07T18:31:59.972Z,25.67
2022-10-07T18:37:21.114Z,27.55
2022-10-07T18:42:42.061Z,29.40
2022-10-07T18:48:03.344Z,29.35
2022-10-07T18:53:24.206Z,39.67
2022-10-07T18:58:47.449Z,37.70
2022-10-07T19:04:09.749Z,34.42
2022-10-07T19:09:31.980Z,29.52
2022-10-07T19:14:54.379Z,37.92
2022-10-07T19:20:17.070Z,31.10
2022-10-07T19:25:47.556Z,33.60
2022-10-07T19:31:16.170Z,27.00
2022-10-07T19:36:42.443Z,25.05
2022-10-07T19:42:03.286Z,26.25
2022-10-07T19:47:25.096Z,21.83
2022-10-07T19:52:46.941Z,19.88
2022-10-07T19:58:07.552Z,17.83
2022-10-07T20:03:28.365Z,25.27
2022-10-07T20:08:48.860Z,22.23
2022-10-07T20:14:10.364Z,21.80
2022-10-07T20:19:31.398Z,18.10
2022-10-07T20:24:52.145Z,19.35
2022-10-07T20:30:17.832Z,16.40
2022-10-07T20:35:39.580Z,18.85
2022-10-07T20:41:19.394Z,20.77
2022-10-07T20:46:40.757Z,18.58
2022-10-07T20:52:07.184Z,16.80
2022-10-07T20:57:33.949Z,22.08
2022-10-07T21:02:55.038Z,18.85
2022-10-07T21:08:15.888Z,21.60
2022-10-07T21:13:36.433Z,24.70
2022-10-07T21:18:57.240Z,21.80
2022-10-07T21:24:18.734Z,28.33
2022-10-07T21:29:41.395Z,42.72
2022-10-07T21:35:02.632Z,40.75
2022-10-07T21:40:23.360Z,34.45
2022-10-07T21:45:44.222Z,22.13
2022-10-07T21:51:09.506Z,16.23
2022-10-07T21:56:32.318Z,23.08
2022-10-07T22:01:53.167Z,25.58
2022-10-07T22:07:32.335Z,22.08
2022-10-07T22:12:54.207Z,21.83
2022-10-07T22:18:15.585Z,21.73
2022-10-07T22:23:36.638Z,22.83
2022-10-07T22:28:57.695Z,21.33
2022-10-07T22:34:37.274Z,19.38
2022-10-07T22:39:57.815Z,19.00
2022-10-07T22:45:19.642Z,19.45
2022-10-07T22:50:40.628Z,17.75
2022-10-07T22:56:06.408Z,19.13
2022-10-07T23:01:31.499Z,16.58
2022-10-07T23:06:53.560Z,24.90
2022-10-07T23:12:14.518Z,18.15
2022-10-07T23:17:35.376Z,18.65
2022-10-07T23:22:56.018Z,19.65
2022-10-07T23:28:16.740Z,18.75
2022-10-07T23:33:38.266Z,18.05
2022-10-07T23:39:00.670Z,14.35
2022-10-07T23:44:23.098Z,15.90
2022-10-07T23:49:43.838Z,19.95
2022-10-07T23:55:05.226Z,14.27
